Aviation Digital Data Service (ADDS)

Output produced by METARs form (2257 UTC 22 June 2018)
found at http://www.aviationweather.gov/adds/metars/
 
KCBM 222156Z AUTO 24010KT 10SM CLR 25/22 A2978 RMK AO2 SLP086 T02530216 $
KCBM 222056Z AUTO 23012G16KT 10SM FEW031 28/23 A2977 RMK AO2 LTG DSNT NW SLP082 T02770233 57028 $
KCBM 221956Z AUTO 22004KT 10SM FEW100 FEW160 FEW190 26/23 A2979 RMK AO2 SLP089 T02600232 $
KCBM 221856Z AUTO 23005KT 10SM FEW100 FEW120 SCT150 BKN190 25/23 A2982 RMK AO2 SLP099 T02500232 $
KCBM 221756Z AUTO 19003KT 10SM FEW027 FEW050 SCT120 BKN160 BKN190 BKN210 22/22 A2985 RMK AO2 RAE27 TSE16 SLP110 P0028 60064 T02190219 10232 20186 50002 $
KCBM 221732Z AUTO 00000KT 9SM SCT046 BKN110 BKN210 20/20 A2986 RMK AO2 RAE27 TSE16 SLP113 $
KCBM 221727Z AUTO 00000KT 5SM BR FEW002 BKN038 BKN110 20/20 A2987 RMK AO2 LTG DSNT E-SE RAE27 TSE16 SLP116 $
KCBM 221726Z AUTO 00000KT 5SM -RA BR FEW002 BKN038 BKN110 20/20 A2987 RMK AO2 LTG DSNT E-SE TSE16 SLP116 $
KCBM 221721Z AUTO 00000KT 3SM -RA BR VCTS FEW002 OVC035 19/19 A2987 RMK AO2 TSE16 SLP116 $
KCBM 221716Z AUTO 28004KT 7SM +RA VCTS FEW003 OVC037 19/19 A2987 RMK AO2 VIS 2 1/4 RWY13C TSE16 SLP116 $
KCBM 221711Z AUTO 35003KT 5SM TSRA BR FEW003 OVC035 19/19 A2988 RMK AO2 SLP120 $
KCBM 221706Z AUTO 00000KT 1 1/8SM R31C/5500FT -TSRA BR SCT002 SCT012 OVC024 19/19 A2988 RMK AO2 VIS 3/8V1 1/4 CIG 013V025 CIG 022 RWY13C SLP120 $
KCBM 221701Z AUTO 03003G29KT 3/8SM R31C/1000V4000FT +TSRA FG SCT002 SCT013 OVC018 19/19 A2987 RMK AO2 VIS 3/8V3 CIG 002V025 PRESFR SLP116 $
KCBM 221656Z AUTO 28022G29KT 1 3/4SM +TSRA BR BKN002 BKN013 OVC030 19/19 A2991 RMK AO2 VIS 1 3/4V3 VIS 7/8 RWY13C RAB19 TSB26 CIG 002V023 SLP130 P0036 T01900190 $
KCBM 221653Z AUTO 29018KT 3SM +TSRA BR BKN003 BKN013 19/19 A2991 RMK AO2 VIS 1 1/4 RWY13C RAB19 TSB26 CIG 003V023 SLP130 $
KCBM 221651Z AUTO 28011KT 2 1/2SM +TSRA BR FEW013 OVC023 19/19 A2990 RMK AO2 VIS 2 1/2V4 RAB19 TSB26 CIG 003 RWY31C SLP127 $
KCBM 221646Z AUTO 29007KT 3SM +TSRA BR FEW013 OVC021 20/20 A2989 RMK AO2 RAB19 TSB26 CIG 013V021 OVC V BKN CIG 012 RWY31C SLP123 $
KCBM 221641Z AUTO 31009G19KT 4SM +TSRA BR SCT012 BKN019 21/21 A2989 RMK AO2 RAB19 TSB26 CIG 013V019 CIG 010 RWY31C SLP123 $
KCBM 221636Z AUTO 32014G19KT 4SM TSRA BR BKN013 22/22 A2990 RMK AO2 RAB19 TSB26 PRESRR SLP126 $
KCBM 221631Z AUTO 27005KT 3SM -TSRA BR BKN013 22/22 A2988 RMK AO2 RAB19 TSB26 SLP120 $
KCBM 221626Z AUTO 23006KT 6SM +TSRA BR BKN013 23/23 A2988 RMK AO2 RAB19 TSB26 BKN V SCT PRESRR SLP119 $
KCBM 221619Z AUTO 20005KT 10SM -RA BKN012 23/23 A2986 RMK AO2 RAB19 SLP113 $
KCBM 221611Z AUTO 22004KT 10SM VCTS BKN014 23/23 A2987 RMK AO2 BKN V SCT SLP116 $
KCBM 221606Z AUTO 20003KT 10SM VCTS SCT014 23/23 A2986 RMK AO2 SLP113 $
KCBM 221556Z AUTO 20004KT 10SM BKN014 23/23 A2986 RMK AO2 LTG DSNT NW SLP113 T02290229 $
KCBM 221531Z AUTO 19005KT 10SM BKN015 BKN026 23/23 A2985 RMK AO2 CIG 015V026 CIG 014 RWY31C SLP109 $
KCBM 221501Z AUTO 20008KT 10SM BKN026 23/22 A2985 RMK AO2 BKN V SCT CIG 025 RWY31C SLP109 $
KCBM 221456Z AUTO 19007KT 10SM SCT026 23/22 A2985 RMK AO2 SLP109 T02290222 53003 $
KCBM 221451Z AUTO 21007KT 10SM SCT026 23/22 A2985 RMK AO2 SLP109 $
KCBM 221446Z AUTO 20004KT 10SM SCT026 23/22 A2985 RMK AO2 SLP109 $
KCBM 221431Z AUTO 21010KT 10SM SCT027 23/22 A2984 RMK AO2 SLP106 $
KCBM 221416Z AUTO 20009KT 10SM BKN027 23/22 A2984 RMK AO2 BKN V SCT SLP106 $
KCBM 221356Z AUTO 19008KT 10SM FEW028 23/21 A2984 RMK AO2 SLP106 T02300211 $
KCBM 221321Z AUTO 20005KT 10SM SCT027 22/21 A2984 RMK AO2 SLP106 $
KCBM 221256Z AUTO 21005KT 10SM BKN028 21/20 A2984 RMK AO2 SLP106 T02070198 $
KCBM 221251Z AUTO 21005KT 10SM BKN028 21/20 A2984 RMK AO2 SLP106 $
KCBM 221156Z AUTO 24004KT 10SM CLR 19/19 A2984 RMK AO2 SLP106 60000 T01850185 10208 20182 52005 $
KCBM 221056Z AUTO 21009KT 10SM BKN130 18/18 A2984 RMK AO2 SLP106 T01830183 $
KCBM 220956Z AUTO 21007KT 10SM OVC100 18/18 A2983 RMK AO2 RAE12 SLP103 P0000 T01840184 $
KCBM 220912Z AUTO 19008KT 10SM SCT042 OVC100 18/18 A2982 RMK AO2 LTG DSNT S-SW RAE12 SLP099 $
KCBM 220856Z AUTO 22006KT 10SM -RA SCT075 OVC100 18/18 A2982 RMK AO2 RAE28RAB34E49RAB54 TSE00TSB23E38 SLP099 P0000 60000 T01830183 58002 $
KCBM 220854Z AUTO 23006KT 10SM -RA SCT075 BKN100 OVC120 18/18 A2983 RMK AO2 RAE28RAB34E49RAB54 TSE00TSB23E38 SLP103 $
KCBM 220849Z AUTO 24007KT 10SM SCT065 BKN100 BKN120 18/18 A2983 RMK AO2 LTG DSNT W RAE28RAB34E49 TSE00TSB23E38 SLP103 $
KCBM 220838Z AUTO 23005KT 10SM -RA SCT046 BKN090 BKN120 18/18 A2983 RMK AO2 LTG DSNT W RAE28RAB34 TSE00TSB23E38 SLP103 $
KCBM 220834Z AUTO 25005KT 10SM -TSRA SCT036 BKN080 BKN100 BKN120 18/18 A2983 RMK AO2 RAE28RAB34 TSE00TSB23 PRESRR SLP103 $
KCBM 220828Z AUTO 24004KT 10SM TS BKN060 BKN080 OVC095 18/18 A2981 RMK AO2 RAE28 TSE00TSB23 SLP096 $
KCBM 220823Z AUTO 20006KT 10SM -TSRA BKN065 OVC095 18/18 A2981 RMK AO2 TSE00TSB23 SLP096 $
KCBM 220800Z AUTO 22006KT 6SM -RA BR FEW002 OVC070 18/18 A2982 RMK AO2 LTG DSNT W TSE00 SLP099 $
KCBM 220756Z AUTO 24008KT 5SM -TSRA BR FEW002 OVC070 18/18 A2983 RMK AO2 RAE15RAB17 TSB18E38TSB45 PRESFR SLP103 P0000 T01840184 $
KCBM 220745Z AUTO 24010KT 5SM +TSRA BR FEW002 FEW034 OVC065 18/18 A2985 RMK AO2 VIS 2 3/4 RWY13C RAE15RAB17 TSB18E38TSB45 SLP109 $
KCBM 220738Z AUTO 27008KT 9SM RA VCTS FEW002 FEW023 SCT034 OVC060 18/18 A2985 RMK AO2 VIS 2 3/4 RWY13C RAE15RAB17 TSB18E38 SLP109 $
KCBM 220728Z AUTO 27010KT 8SM +TSRA FEW002 FEW023 SCT034 OVC055 18/18 A2985 RMK AO2 RAE15RAB17 TSB18 SLP109 $
KCBM 220723Z AUTO 28011KT 10SM -TSRA FEW002 FEW023 SCT034 BKN048 OVC060 19/19 A2985 RMK AO2 RAE15RAB17 TSB18 SLP109 $
KCBM 220718Z AUTO 26011KT 10SM -TSRA FEW023 FEW034 BKN048 OVC060 19/19 A2985 RMK AO2 RAE15RAB17 TSB18 SLP109 $
KCBM 220717Z AUTO 26011KT 10SM -RA VCTS FEW023 SCT048 OVC060 19/19 A2984 RMK AO2 RAE15RAB17 SLP106 $
KCBM 220715Z AUTO 27011KT 10SM VCTS FEW023 SCT048 OVC060 19/19 A2984 RMK AO2 RAE15 SLP106 $
KCBM 220711Z AUTO 27012KT 9SM -RA FEW002 SCT048 OVC060 19/19 A2984 RMK AO2 SLP106 $
KCBM 220656Z AUTO 28011G19KT 10SM -RA VCTS FEW002 BKN031 OVC060 19/19 A2983 RMK AO2 PK WND 32028/28 RAB21 TSB40E55 SLP103 P0000 T01890189 $
KCBM 220655Z AUTO 28011G19KT 10SM -RA VCTS FEW002 BKN031 OVC065 19/19 A2983 RMK AO2 RAB21 TSB40E55 SLP103 $
KCBM 220650Z AUTO 29014G19KT 8SM -TSRA FEW002 BKN025 BKN030 BKN043 BKN055 OVC070 19/19 A2983 RMK AO2 RAB21 TSB40 CIG 020V025 SLP103 $
KCBM 220645Z AUTO 29012KT 4SM -TSRA BR FEW002 BKN025 BKN030 OVC043 19/19 A2983 RMK AO2 RAB21 TSB40 CIG 013V025 SLP103 $
KCBM 220640Z COR AUTO 28015G26KT 1 3/8SM -RA BR TS FEW002 BKN017 OVC026 19/19 A2984 RMK AO2 VIS 1V9 RAB21 CIG 013V019 SLP106 $ COR 0643
KCBM 220635Z AUTO 30019G26KT 4SM +RA BR VCTS FEW003 SCT010 BKN019 BKN026 OVC036 19/19 A2984 RMK AO2 VIS 1 1/2 RWY13C RAB21 CIG 019V028 SLP106 $
KCBM 220630Z AUTO 31019G26KT 10SM +RA VCTS FEW003 BKN019 BKN026 OVC031 19/19 A2984 RMK AO2 WSHFT 26 RAB21 CIG 019V028 CIG 018 RWY13C SLP106 $
KCBM 220621Z AUTO 01008KT 10SM -RA FEW008 BKN020 OVC027 20/19 A2983 RMK AO2 RAB21 SLP103 $
KCBM 220616Z AUTO 35007G15KT 10SM FEW008 BKN020 OVC027 20/18 A2982 RMK AO2 SLP099 $
KCBM 220601Z AUTO 01011G19KT 10SM SCT008 BKN018 21/19 A2982 RMK AO2 LTG DSNT N CIG 008V018 SLP099 $
KCBM 220556Z AUTO 01015G19KT 10SM BKN008 21/21 A2983 RMK AO2 LTG DSNT NW-N SLP103 60000 T02090207 10276 20209 402860199 53006 $
KCBM 220531Z AUTO 18005KT 10SM FEW010 22/22 A2981 RMK AO2 SLP096 $
KCBM 220456Z AUTO 18005KT 10SM FEW130 22/22 A2982 RMK AO2 SLP099 T02200220 $
KCBM 220356Z AUTO 18005KT 10SM CLR 22/22 A2981 RMK AO2 SLP096 T02240224 $
KCBM 220256Z AUTO 18006KT 10SM CLR 23/23 A2981 RMK AO2 DZB17E22 SLP096 P0000 60000 T02320227 53007 $
KCBM 220156Z AUTO 00000KT 10SM SCT040 24/23 A2980 RMK AO2 SLP092 T02390225 $
KCBM 220056Z AUTO 18004KT 10SM CLR 26/23 A2979 RMK AO2 SLP089 T02550226 $
KCBM 212356Z AUTO 21005KT 10SM SCT040 SCT070 28/23 A2979 RMK AO2 SLP089 60000 T02760229 10286 20218 55009 $
KCBM 212256Z AUTO 22006KT 10SM FEW034 28/22 A2979 RMK AO2 SLP089 T02820224 $
KCBM 212156Z AUTO 20008KT 10SM FEW045 28/22 A2980 RMK AO2 SLP092 T02820224 $
KCBM 212056Z AUTO 23009KT 10SM FEW027 27/23 A2982 RMK AO2 SLP099 60000 T02740228 57021 $
KCBM 211956Z AUTO 22008KT 10SM CLR 26/23 A2984 RMK AO2 SLP106 T02580231 $
KCBM 211856Z AUTO 17006KT 10SM FEW032 BKN080 BKN200 24/23 A2986 RMK AO2 RAB1756E08 SLP113 P0000 T02370226 $
KCBM 211828Z AUTO 20006KT 10SM SCT034 BKN070 22/22 A2987 RMK AO2 RAB1756E08 SLP116 $
KCBM 211808Z AUTO 22011G15KT 10SM FEW010 BKN037 OVC050 22/22 A2988 RMK AO2 RAB1756E08 SLP120 $
KCBM 211757Z AUTO 22008KT 10SM -RA FEW008 FEW024 BKN037 BKN050 BKN080 23/22 A2988 RMK AO2 RAB56 SLP120 $
KCBM 211756Z AUTO 23008KT 10SM FEW008 BKN037 BKN050 BKN080 23/22 A2988 RMK AO2 SLP120 60000 T02280224 10232 20204 58007 $
KCBM 211746Z AUTO 22011KT 10SM SCT008 BKN034 BKN050 BKN065 BKN080 23/23 A2988 RMK AO2 SLP120 $
KCBM 211711Z AUTO 21009KT 10SM OVC007 22/22 A2990 RMK AO2 SLP126 $
KCBM 211656Z AUTO 21008KT 10SM BKN008 BKN090 22/22 A2990 RMK AO2 RAE08RAB20E36 CIG 008V090 BKN008 V SCT SLP126 P0000 T02170217 $
KCBM 211655Z AUTO 21007KT 10SM BKN008 BKN090 BKN150 22/22 A2990 RMK AO2 RAE08RAB20E36 CIG 008V090 BKN008 V SCT SLP126 $
KCBM 211650Z AUTO 20007KT 10SM SCT010 SCT013 SCT020 BKN032 BKN085 BKN150 22/22 A2990 RMK AO2 RAE08RAB20E36 SLP126 $
KCBM 211645Z AUTO 21005KT 10SM FEW009 FEW013 SCT020 SCT032 BKN090 BKN150 22/22 A2991 RMK AO2 RAE08RAB20E36 SLP130 $
KCBM 211636Z AUTO 22005KT 10SM SCT021 SCT033 SCT150 21/21 A2991 RMK AO2 RAE08RAB20E36 SLP130 $
KCBM 211635Z AUTO 22004KT 10SM -RA FEW002 SCT021 BKN033 21/21 A2990 RMK AO2 RAE08RAB20 SLP126 $
KCBM 211620Z AUTO 21004KT 10SM -RA FEW002 BKN023 OVC031 21/21 A2991 RMK AO2 RAE08RAB20 CIG 021V026 SLP130 $
KCBM 211618Z AUTO 20005KT 9SM FEW002 BKN021 OVC028 21/21 A2991 RMK AO2 RAE08 CIG 021V026 SLP130 $
KCBM 211613Z AUTO 19005KT 4SM BR FEW002 SCT020 BKN026 BKN034 21/21 A2991 RMK AO2 RAE08 CIG 024 RWY13C SLP130 $
KCBM 211608Z AUTO 18007KT 1SM R31C/2800VP6000FT BR FEW002 BKN026 BKN034 21/21 A2991 RMK AO2 VIS 1V9 RAE08 CIG 026V036 SLP130 $
KCBM 211604Z AUTO 19007KT 3SM -RA BR FEW002 BKN028 BKN036 21/21 A2991 RMK AO2 CIG 026V036 CIG 026 RWY13C SLP130 $
KCBM 211559Z AUTO 23006KT 8SM -RA FEW002 SCT029 BKN036 21/21 A2991 RMK AO2 SLP130 $
KCBM 211556Z AUTO 23005KT 10SM -RA FEW029 BKN036 21/21 A2991 RMK AO2 RAB18E28RAB55 SLP130 P0000 T02100210 $
KCBM 211555Z AUTO 22006KT 10SM -RA FEW029 BKN036 21/21 A2991 RMK AO2 RAB18E28RAB55 SLP130 $
KCBM 211553Z AUTO 22006KT 10SM SCT035 21/21 A2991 RMK AO2 RAB18E28 SLP130 $
KCBM 211528Z AUTO 21006KT 10SM FEW045 SCT065 21/21 A2991 RMK AO2 RAB18E28 SLP130 $
KCBM 211518Z AUTO 21006KT 10SM -RA FEW060 21/21 A2990 RMK AO2 RAB18 SLP126 $
KCBM 211456Z AUTO 22004KT 10SM FEW065 22/22 A2990 RMK AO2 RAB22E31 SLP126 P0000 60000 T02150215 55001 $
KCBM 211431Z AUTO 21003KT 10SM SCT065 SCT090 BKN150 21/21 A2990 RMK AO2 RAB22E31 SLP126 $
KCBM 211356Z AUTO 25005KT 10SM BKN140 21/21 A2990 RMK AO2 RAE1257DZB1257E1259RAB42E51 SLP126 P0000 T02100210 $
KCBM 211351Z AUTO 26007KT 10SM SCT130 BKN150 21/21 A2990 RMK AO2 RAE1257DZB1257E1259RAB42E51 SLP126 $
KCBM 211342Z AUTO 27005KT 10SM -RA BKN130 21/21 A2990 RMK AO2 RAE1257DZB1257E1259RAB42 SLP126 $
KCBM 211259Z AUTO 29004KT 10SM FEW007 21/21 A2990 RMK AO2 RAE57DZB57E59 SLP126 $
KCBM 211256Z AUTO 28003KT 10SM -RA FEW007 21/21 A2990 RMK AO2 SLP126 P0000 T02080208 $
KCBM 211218Z AUTO 00000KT 10SM -RA FEW003 21/21 A2991 RMK AO2 SLP130 $
KCBM 211213Z AUTO 00000KT 10SM CLR 21/21 A2990 RMK AO2 SLP126 $
KCBM 211201Z AUTO 00000KT 10SM -RA SCT007 20/20 A2990 RMK AO2 SLP126 $
KCBM 211156Z AUTO 00000KT 10SM -RA BKN007 20/20 A2990 RMK AO2 RAE41DZB46E47RAB47 TSB38E47 CIG 006V010 CIG 005 RWY31C SLP126 P0003 60045 70070 T02030203 10209 20199 53008 $
KCBM 211152Z 00000KT 10SM -RA BKN007 20/20 A2990 RMK AO2A RAE41DZB46E47RAB47 TSB38E47 CIG 005V010 BKN V OVC CIG 005 RWY31C SLP126 $
KCBM 211147Z 00000KT 10SM -DZ BKN006 OVC010 20/20 A2990 RMK AO2A RAE41DZB46 TSB38E46 CIG 005V009 CIG 005 RWY31C SLP126 $
KCBM 211138Z 30004KT 10SM -TSRA FEW002 OVC009 20/20 A2990 RMK CIG 007V012 CIG 004 RWY31C SLP126 $
KCBM 211137Z AUTO 30004KT 9SM -RA SCT003 OVC009 20/20 A2990 RMK AO2 CIG 007V012 CIG 004 RWY31C SLP126 $
KCBM 211132Z AUTO 31004KT 5SM -RA BR SCT003 OVC012 20/20 A2990 RMK AO2 CIG 004 RWY31C SLP126 $
KCBM 211127Z AUTO 31004KT 1 3/8SM +RA BR SCT003 OVC014 20/20 A2990 RMK AO2 VIS 7/8V1 3/8 OVC V BKN SLP126 $
KCBM 211122Z AUTO 32005KT 1 1/8SM +RA BR FEW002 BKN014 OVC027 20/20 A2990 RMK AO2 VIS 7/8V3 SLP126 $
KCBM 211117Z AUTO 34005KT 1 1/4SM +RA BR SCT002 BKN014 OVC027 20/20 A2989 RMK AO2 VIS 1 1/4V5 SLP123 $
KCBM 211112Z AUTO 33005KT 3SM +RA BR FEW002 BKN016 OVC027 20/20 A2989 RMK AO2 SLP123 $
KCBM 211107Z AUTO 28003KT 5SM RA BR FEW004 BKN016 BKN027 20/20 A2989 RMK AO2 SLP123 $
KCBM 211056Z AUTO 15005KT 5SM -RA BR BKN016 BKN032 20/20 A2988 RMK AO2 RAB15E34RAB45 CIG 016V032 BKN016 V SCT SLP120 P0011 T02040204 $
KCBM 211045Z AUTO 14005KT 10SM RA SCT016 BKN032 20/20 A2988 RMK AO2 RAB15E34RAB45 SLP120 $
KCBM 211034Z AUTO 12004KT 9SM FEW016 BKN033 20/20 A2987 RMK AO2 LTG DSNT NW RAB15E34 SLP116 $
KCBM 211025Z AUTO 11003KT 5SM RA BR SCT016 BKN033 20/20 A2987 RMK AO2 RAB15 SLP116 $
KCBM 211015Z AUTO 12003KT 10SM -RA SCT034 20/20 A2987 RMK AO2 RAB15 SLP116 $
KCBM 210956Z AUTO 00000KT 10SM FEW034 20/20 A2986 RMK AO2 SLP113 T02010201 $
KCBM 210856Z AUTO 00000KT 10SM SCT040 20/20 A2988 RMK AO2 RAB05E34 SLP119 P0020 60031 T02000200 55008 $
KCBM 210839Z AUTO 10003KT 10SM FEW001 SCT011 SCT047 20/20 A2988 RMK AO2 RAB05E34 SLP119 $
KCBM 210834Z AUTO 08004KT 10SM FEW001 SCT019 BKN047 20/20 A2988 RMK AO2 RAB05E34 SLP119 $
KCBM 210832Z AUTO 06004KT 10SM -RA FEW001 SCT019 BKN045 20/20 A2988 RMK AO2 RAB05 SLP119 $
KCBM 210827Z AUTO 05004KT 10SM -RA FEW001 BKN019 BKN044 20/20 A2988 RMK AO2 RAB05 SLP119 $
KCBM 210822Z AUTO 03004KT 5SM -RA BR FEW002 BKN021 BKN039 BKN048 20/20 A2989 RMK AO2 VIS 2 3/4 RWY31C RAB05 CIG 021V039 SLP123 $
KCBM 210817Z AUTO 35004KT 1 3/8SM +RA BR FEW002 BKN021 BKN039 20/20 A2989 RMK AO2 VIS 1 3/8V8 RAB05 CIG 021V039 SLP123 $
KCBM 210812Z AUTO 28004KT 4SM +RA BR FEW002 SCT026 SCT031 BKN039 21/21 A2990 RMK AO2 RAB05 SLP126 $
KCBM 210805Z AUTO 30007KT 10SM RA FEW031 SCT039 21/21 A2989 RMK AO2 RAB05 SLP123 $
KCBM 210756Z AUTO 00000KT 10SM FEW049 FEW080 21/21 A2988 RMK AO2 LTG DSNT SE RAE17DZB17E18 SLP119 P0003 T02070207 $
KCBM 210733Z AUTO 11003KT 10SM FEW022 SCT042 21/21 A2988 RMK AO2 RAE17DZB17E18 SLP119 $
KCBM 210718Z AUTO 18003KT 10SM SCT020 BKN043 BKN050 21/21 A2989 RMK AO2 RAE17DZB17E18 SLP123 $
KCBM 210716Z AUTO 17003KT 9SM -RA SCT020 BKN049 21/21 A2989 RMK AO2 SLP123 $
KCBM 210711Z AUTO 00000KT 6SM -RA BR BKN021 BKN049 21/21 A2989 RMK AO2 CIG 021V049 SLP123 $
KCBM 210701Z AUTO 25005KT 6SM -RA BR SCT020 SCT028 BKN049 21/21 A2989 RMK AO2 SLP123 $
KCBM 210656Z AUTO 27003KT 5SM +RA BR SCT020 SCT049 21/21 A2989 RMK AO2 RAB49 SLP123 P0008 T02080208 $
KCBM 210649Z AUTO 00000KT 10SM +RA FEW024 FEW049 SCT110 21/21 A2989 RMK AO2 RAB49 SLP123 $
KCBM 210556Z AUTO 00000KT 10SM SCT080 21/21 A2990 RMK AO2 SLP126 60000 T02070207 10215 20206 402880199 58006 $
KCBM 210456Z AUTO 15004KT 10SM FEW080 FEW100 21/21 A2992 RMK AO2 SLP133 T02080208 $
KCBM 210356Z AUTO 00000KT 10SM FEW100 21/21 A2992 RMK AO2 SLPNO T02090209 $
KCBM 210256Z AUTO 00000KT 10SM CLR 21/21 A2992 RMK AO2 RAB0156E00 SLPNO P0000 60000 T02100210 53008 $
KCBM 210156Z AUTO 00000KT 10SM CLR 21/21 A2991 RMK AO2 RAB48 SLPNO P0000 T02120212 $
KCBM 210056Z AUTO 06003KT 10SM CLR 21/21 A2990 RMK AO2 DZB05E06RAB06E17RAB31E41 SLP126 P0000 T02130213 $
KCBM 202356Z AUTO 00000KT 10SM CLR 21/21 A2990 RMK AO2 RAE07RAB26E46 SLP126 P0000 60025 T02140214 10288 20199 58001 $
KCBM 202307Z AUTO 32004KT 10SM FEW005 22/22 A2990 RMK AO2 LTG DSNT W RAE07 SLP126 $
KCBM 202256Z AUTO 00000KT 10SM -RA FEW005 FEW090 21/21 A2990 RMK AO2 LTG DSNT W RAE28RAB43 TSE2158 SLP126 P0006 T02140214 $
KCBM 202251Z AUTO 00000KT 9SM -RA FEW005 21/21 A2990 RMK AO2 RAE28RAB43 TSE2158 SLP126 $
KCBM 202247Z AUTO 00000KT 9SM CLR 21/21 A2990 RMK AO2 RAE28RAB43 TSE2158 SLP126 $
KCBM 202246Z AUTO 00000KT 9SM -RA FEW006 21/21 A2990 RMK AO2 RAE28RAB43 TSE2158 SLP126 $
KCBM 202243Z AUTO 00000KT 10SM -RA FEW032 21/21 A2990 RMK AO2 RAE28RAB43 TSE2158 SLP126 $
KCBM 202229Z AUTO 00000KT 10SM SCT030 21/21 A2990 RMK AO2 RAE28 TSE2158 SLP126 $
KCBM 202228Z AUTO 00000KT 9SM -RA SCT030 20/20 A2990 RMK AO2 TSE2158 SLP126 $
KCBM 202223Z AUTO 12006KT 6SM -RA BR BKN031 20/20 A2990 RMK AO2 TSE2158 SLP126 $
KCBM 202218Z AUTO 10005KT 3SM -RA BR BKN031 20/20 A2990 RMK AO2 TSE2158 SLP126 $
KCBM 202213Z AUTO 00000KT 4SM RA BR VCTS FEW003 BKN029 20/20 A2991 RMK AO2 TSE2158 CIG 024V029 SLP130 $
KCBM 202208Z AUTO 00000KT 7SM RA VCTS FEW003 BKN026 BKN060 20/20 A2992 RMK AO2 TSE2158 SLP133 $
KCBM 202203Z AUTO 00000KT 6SM -RA BR VCTS FEW003 BKN024 BKN044 BKN055 20/20 A2992 RMK AO2 TSE2158 CIG 019V024 SLP133 $
KCBM 202158Z AUTO 17004G19KT 2 1/4SM -RA BR FEW003 BKN024 BKN042 OVC050 20/20 A2993 RMK AO2 VIS 1 1/2V4 TSE58 CIG 017V034 CIG 002 RWY31C SLP137 $
KCBM 202156Z AUTO 15005G19KT 1 1/2SM +TSRA BR FEW002 BKN021 BKN034 OVC045 20/20 A2993 RMK AO2 PK WND 22030/30 VIS 1 1/2V6 RAB35 TSB43 CIG 017V048 CIG 002 RWY31C SLP137 P0019 T01990199 $
KCBM 202154Z AUTO 15006G19KT 1 1/2SM +TSRA BR FEW002 BKN019 BKN034 OVC045 20/20 A2993 RMK AO2 VIS 1 1/2V7 RAB35 TSB43 CIG 017V048 CIG 002 RWY31C SLP137 $
KCBM 202149Z AUTO 17013KT 3SM +TSRA BR FEW002 SCT013 BKN034 BKN045 BKN050 20/20 A2993 RMK AO2 RAB35 TSB43 SLP137 $
KCBM 202144Z AUTO 18015G21KT 8SM -TSRA FEW002 SCT011 SCT034 BKN045 BKN050 21/20 A2993 RMK AO2 VIS 2 1/4 RWY31C RAB35 TSB43 SLP137 $
KCBM 202143Z 19017G21KT 9SM -TSRA FEW011 SCT034 BKN045 BKN050 21/20 A2993 RMK VIS 2 RWY31C LTG DSNT SW RAB35 SLP137 $
KCBM 202140Z AUTO 20018G30KT 10SM -RA FEW008 FEW034 BKN045 BKN050 22/20 A2993 RMK AO2 VIS 2 1/4 RWY31C LTG DSNT SW RAB35 SLP137 $
KCBM 202135Z AUTO 20015G30KT 10SM -RA FEW021 FEW034 BKN045 23/20 A2993 RMK AO2 LTG DSNT SW RAB35 SLP137 $
KCBM 202056Z AUTO 15006KT 10SM CLR 27/21 A2990 RMK AO2 LTG DSNT NW SLP126 60000 T02700210 57019 $
KCBM 201956Z AUTO 16007KT 10SM FEW190 26/20 A2992 RMK AO2 LTG DSNT SE-S RAB00E09 SLP133 P0000 T02620200 $
KCBM 201909Z AUTO 19013KT 10SM FEW038 FEW120 SCT170 26/22 A2995 RMK AO2 LTG DSNT NW RAB00E09 SLP143 $
KCBM 201900Z AUTO 18011KT 10SM -RA FEW039 SCT160 SCT190 28/23 A2995 RMK AO2 RAB00 SLP143 $
KCBM 201856Z AUTO 20009KT 10SM FEW039 FEW170 SCT190 29/22 A2995 RMK AO2 SLP143 T02870217 $
KCBM 201756Z AUTO 00000KT 10SM FEW160 SCT190 29/21 A2996 RMK AO2 SLP146 T02860208 10287 20218 $
KCBM 201701Z 00000KT 10SM FEW100 FEW130 SCT160 BKN200 28/22 A2997 RMK SLP150 $
KCBM 201556Z 00000KT 10SM FEW150 BKN190 26/22 A2999 RMK AO2A SLP157 T02610215 $
KCBM 201456Z 03003KT 10SM FEW050 BKN190 25/22 A2999 RMK AO2A SLP157 T02540215 50004 $
KCBM 201427Z 00000KT 10SM FEW050 BKN150 25/21 A2999 RMK SLP157 $
KCBM 201421Z AUTO 00000KT 4SM HZ CLR 25/21 A2999 RMK AO2 SLP157 $
KCBM 201356Z AUTO 00000KT 10SM CLR 24/21 A2999 RMK AO2 SLP157 T02430208 $
KCBM 201256Z COR AUTO 00000KT 10SM FEW045 SCT090 BKN150 BKN250 23/23 A2999 RMK AO2 SLP157 T02250225 $ COR 1338
KCBM 201156Z AUTO 33004KT 10SM CLR 22/22 A2997 RMK AO2 SLP150 T02180218 10218 20205 53007 $
KCBM 201056Z AUTO 00000KT 10SM SCT130 21/21 A2996 RMK AO2 SLP146 T02100210 $
KCBM 200956Z AUTO 00000KT 10SM SCT120 BKN150 BKN230 21/21 A2995 RMK AO2 SLP143 T02080208 $
KCBM 200856Z AUTO 00000KT 10SM FEW160 SCT220 21/21 A2995 RMK AO2 SLP143 T02060206 57010 $
KCBM 200756Z AUTO 00000KT 10SM FEW120 SCT150 21/21 A2996 RMK AO2 SLP146 T02120212 $
KCBM 200656Z AUTO 00000KT 10SM OVC180 21/21 A2997 RMK AO2 SLP150 T02130213 $
KCBM 200556Z AUTO 00000KT 10SM SCT160 BKN220 21/21 A2998 RMK AO2 SLP153 T02130213 10276 20213 402950201 58003 $
KCBM 200456Z AUTO 00000KT 10SM BKN180 22/22 A2999 RMK AO2 SLP156 T02210216 $
KCBM 200356Z AUTO 00000KT 10SM OVC180 23/22 A2999 RMK AO2 SLP156 T02260216 $
KCBM 200256Z AUTO 00000KT 10SM OVC170 23/22 A2999 RMK AO2 SLP157 T02310215 52007 $
KCBM 200156Z AUTO 00000KT 10SM CLR 24/21 A2998 RMK AO2 SLP153 T02430206 $
KCBM 200056Z AUTO 34003KT 10SM CLR 26/20 A2997 RMK AO2 SLP150 T02560201 $
KCBM 192356Z AUTO 34007KT 10SM CLR 28/20 A2997 RMK AO2 SLP150 60000 T02770202 10295 20277 56009 $